Time;durP1;ratioP1;P1;durP2;ratioP2;P2;SDS_P1;SDS_P2;PMS_P1;PMS_P2;Temp;Humidity;BMP_temperature;BMP_pressure;BME280_temperature;BME280_humidity;BME280_pressure;Samples;Min_cycle;Max_cycle;Signal;HPM_P1;HPM_P2
2023/05/11 00:00:48;;;;;;;24.70;13.65;;;15.10;97.20;;;;;;5133288;28;20035;-76
2023/05/11 00:03:14;;;;;;;25.05;13.60;;;15.10;97.20;;;;;;5134125;28;20027;-75
2023/05/11 00:05:39;;;;;;;24.88;13.65;;;15.00;97.10;;;;;;5133054;28;20083;-75
2023/05/11 00:08:05;;;;;;;23.85;13.48;;;15.00;97.20;;;;;;5116018;28;20091;-75
2023/05/11 00:10:31;;;;;;;28.55;14.18;;;15.00;97.40;;;;;;5133262;28;20144;-75
2023/05/11 00:12:57;;;;;;;25.48;13.48;;;15.00;97.40;;;;;;5133185;28;20027;-76
2023/05/11 00:15:22;;;;;;;25.20;13.93;;;15.10;97.30;;;;;;5133271;28;20053;-76
2023/05/11 00:17:48;;;;;;;24.60;13.07;;;15.10;97.30;;;;;;5133999;28;20020;-76
2023/05/11 00:20:14;;;;;;;24.13;13.35;;;15.10;97.30;;;;;;5134041;28;20152;-76
2023/05/11 00:22:40;;;;;;;24.83;13.48;;;15.10;97.30;;;;;;5115933;28;20047;-76
2023/05/11 00:25:06;;;;;;;27.02;13.90;;;15.10;97.30;;;;;;5134026;28;20020;-76
2023/05/11 00:27:32;;;;;;;25.13;14.30;;;15.10;97.40;;;;;;5133928;28;20031;-76
2023/05/11 00:29:58;;;;;;;24.17;13.63;;;15.10;97.30;;;;;;5116078;28;20019;-75
2023/05/11 00:32:23;;;;;;;25.58;13.77;;;15.10;97.30;;;;;;5133130;28;20028;-76
2023/05/11 00:34:49;;;;;;;24.38;13.30;;;15.10;97.80;;;;;;5133783;28;20048;-76
2023/05/11 00:37:15;;;;;;;24.38;13.38;;;15.10;97.40;;;;;;5132814;28;20035;-76
2023/05/11 00:39:40;;;;;;;23.30;13.00;;;15.10;97.40;;;;;;5133944;28;20069;-75
2023/05/11 00:42:06;;;;;;;27.83;14.63;;;15.10;97.40;;;;;;5133752;28;20051;-76
2023/05/11 00:44:31;;;;;;;28.83;14.25;;;15.00;97.40;;;;;;5133675;28;20040;-75
2023/05/11 00:46:57;;;;;;;24.75;13.40;;;15.00;97.50;;;;;;5132687;28;20027;-75
2023/05/11 00:49:23;;;;;;;27.00;13.80;;;15.00;97.50;;;;;;5132752;28;20028;-76
2023/05/11 00:51:49;;;;;;;26.42;13.63;;;15.00;97.50;;;;;;5133925;28;20110;-75
2023/05/11 00:54:15;;;;;;;26.17;13.48;;;15.00;97.40;;;;;;5136771;28;20031;-76
2023/05/11 00:56:41;;;;;;;27.60;13.60;;;14.90;97.30;;;;;;5136706;28;20122;-76
2023/05/11 00:59:07;;;;;;;25.35;13.45;;;15.00;97.40;;;;;;5137701;28;20482;-76
2023/05/11 01:01:34;;;;;;;25.70;13.20;;;15.00;97.40;;;;;;5137694;28;20024;-76
2023/05/11 01:04:03;;;;;;;22.73;12.98;;;15.00;97.40;;;;;;5137586;28;20024;-76
2023/05/11 01:06:46;;;;;;;27.85;14.40;;;15.00;97.30;;;;;;5137421;28;20043;-76
2023/05/11 01:09:52;;;;;;;24.08;12.68;;;15.00;97.20;;;;;;5136612;28;20028;-75
2023/05/11 01:12:33;;;;;;;25.02;13.05;;;15.00;97.20;;;;;;5137019;28;20063;-76
2023/05/11 01:15:23;;;;;;;25.75;12.85;;;14.90;97.10;;;;;;5137596;28;20053;-76
2023/05/11 01:18:09;;;;;;;24.98;13.05;;;14.90;97.20;;;;;;5136452;28;20030;-76
2023/05/11 01:20:35;;;;;;;25.50;13.43;;;14.90;97.20;;;;;;5137401;28;20031;-76
2023/05/11 01:23:06;;;;;;;22.65;13.07;;;14.80;97.30;;;;;;5136274;28;20032;-75
2023/05/11 01:25:51;;;;;;;24.50;13.13;;;14.80;97.40;;;;;;5137279;27;20016;-76
2023/05/11 01:28:38;;;;;;;23.88;13.48;;;14.80;97.40;;;;;;5137205;28;20079;-76
2023/05/11 01:31:09;;;;;;;31.45;13.73;;;14.80;97.50;;;;;;5137231;28;20034;-76
2023/05/11 01:33:38;;;;;;;26.45;14.00;;;14.80;97.60;;;;;;5137166;28;20023;-76
2023/05/11 01:36:08;;;;;;;24.17;12.48;;;14.90;97.70;;;;;;5137020;28;20023;-76
2023/05/11 01:38:37;;;;;;;28.77;14.77;;;14.90;97.60;;;;;;5136969;28;20019;-76
2023/05/11 01:41:21;;;;;;;27.48;13.95;;;14.90;97.60;;;;;;5136941;27;20091;-76
2023/05/11 01:43:58;;;;;;;26.38;13.05;;;14.90;97.50;;;;;;5135932;28;20083;-75
2023/05/11 01:46:26;;;;;;;26.10;13.60;;;14.90;97.60;;;;;;5136914;28;20031;-75
2023/05/11 01:48:55;;;;;;;26.35;12.95;;;14.90;97.60;;;;;;5118888;28;20101;-75
2023/05/11 01:51:24;;;;;;;29.33;14.15;;;14.90;97.60;;;;;;5136723;28;20024;-75
2023/05/11 01:53:52;;;;;;;24.05;12.85;;;14.80;97.60;;;;;;5135740;28;20016;-75
2023/05/11 01:56:21;;;;;;;28.90;13.90;;;14.80;97.60;;;;;;5135655;28;20412;-76
2023/05/11 01:58:49;;;;;;;27.33;13.77;;;14.80;97.70;;;;;;5135714;28;20024;-76
2023/05/11 02:01:16;;;;;;;30.13;14.05;;;14.80;97.70;;;;;;5136522;28;20027;-76
2023/05/11 02:03:42;;;;;;;27.23;14.20;;;14.80;97.70;;;;;;5135454;28;20053;-76
2023/05/11 02:06:10;;;;;;;27.70;13.00;;;14.70;97.80;;;;;;5135366;28;20457;-75
2023/05/11 02:08:38;;;;;;;27.73;13.40;;;14.70;97.80;;;;;;5136422;28;20034;-75
2023/05/11 02:11:05;;;;;;;27.27;13.13;;;14.70;97.80;;;;;;5136350;28;20023;-76
2023/05/11 02:13:35;;;;;;;25.70;14.02;;;14.70;97.90;;;;;;5136321;28;20023;-76
2023/05/11 02:16:01;;;;;;;24.58;13.40;;;14.70;97.90;;;;;;5136301;28;20027;-76
2023/05/11 02:18:28;;;;;;;30.38;14.77;;;14.70;97.90;;;;;;5136234;28;20034;-76
2023/05/11 02:20:57;;;;;;;26.60;15.00;;;14.70;97.90;;;;;;5136197;27;20047;-76
2023/05/11 02:23:25;;;;;;;29.67;14.80;;;14.70;98.00;;;;;;5136006;28;20023;-75
2023/05/11 02:25:52;;;;;;;29.38;14.40;;;14.70;98.00;;;;;;5118316;28;20023;-75
2023/05/11 02:28:18;;;;;;;32.60;15.65;;;14.70;98.10;;;;;;5136015;28;20020;-76
2023/05/11 02:30:46;;;;;;;35.30;15.38;;;14.70;98.00;;;;;;5135959;28;20023;-76
2023/05/11 02:33:23;;;;;;;31.73;15.48;;;14.70;98.10;;;;;;5135975;28;20020;-76
2023/05/11 02:35:50;;;;;;;32.00;14.88;;;14.70;98.20;;;;;;5135947;28;20031;-75
2023/05/11 02:38:17;;;;;;;29.60;14.90;;;14.70;98.20;;;;;;5135810;28;20024;-76
2023/05/11 02:40:49;;;;;;;32.75;14.45;;;14.70;98.20;;;;;;5134737;28;20031;-76
2023/05/11 02:43:20;;;;;;;29.58;14.27;;;14.70;98.20;;;;;;5135707;28;20034;-76
2023/05/11 02:45:49;;;;;;;31.38;15.85;;;14.80;98.20;;;;;;5134672;28;20015;-76
2023/05/11 02:48:27;;;;;;;31.95;15.68;;;14.80;98.10;;;;;;5135614;28;20016;-76
2023/05/11 02:50:55;;;;;;;34.08;15.48;;;14.80;98.10;;;;;;5135613;28;20030;-76
2023/05/11 02:53:24;;;;;;;31.38;15.27;;;14.80;98.10;;;;;;5134507;28;20034;-76
2023/05/11 02:55:50;;;;;;;30.15;14.07;;;14.80;98.10;;;;;;5134504;28;20031;-75
2023/05/11 02:58:17;;;;;;;31.48;15.52;;;14.80;98.10;;;;;;5135389;28;20032;-76
2023/05/11 03:00:43;;;;;;;30.55;14.20;;;14.90;98.10;;;;;;5134330;28;20035;-76
2023/05/11 03:03:09;;;;;;;32.75;15.70;;;14.90;98.10;;;;;;5135354;28;20034;-76
2023/05/11 03:05:34;;;;;;;32.80;15.60;;;14.90;98.00;;;;;;5134472;28;20083;-76
2023/05/11 03:08:01;;;;;;;29.35;15.20;;;14.90;97.90;;;;;;5134135;28;20065;-76
2023/05/11 03:10:27;;;;;;;32.95;15.45;;;14.90;97.80;;;;;;5135178;27;20012;-76
2023/05/11 03:12:54;;;;;;;32.67;16.05;;;14.80;97.80;;;;;;5134146;28;20038;-76
2023/05/11 03:15:21;;;;;;;36.03;15.60;;;14.80;97.80;;;;;;5133955;28;20015;-75
2023/05/11 03:17:48;;;;;;;32.92;15.07;;;14.80;97.80;;;;;;5135043;28;20028;-75
2023/05/11 03:20:14;;;;;;;33.50;15.13;;;14.80;97.80;;;;;;5135014;28;20080;-76
2023/05/11 03:22:41;;;;;;;34.58;14.60;;;14.70;97.70;;;;;;5134911;28;20088;-76
2023/05/11 03:25:08;;;;;;;37.17;15.70;;;14.70;97.70;;;;;;5134039;28;20032;-76
2023/05/11 03:27:40;;;;;;;38.10;16.08;;;14.70;97.70;;;;;;5133849;28;20083;-76
2023/05/11 03:30:08;;;;;;;37.90;15.27;;;14.70;97.80;;;;;;5133816;28;20044;-76
2023/05/11 03:32:34;;;;;;;34.35;13.98;;;14.70;97.80;;;;;;5134893;28;20024;-76
2023/05/11 03:35:00;;;;;;;37.55;16.48;;;14.70;97.80;;;;;;5134667;28;20030;-75
2023/05/11 03:37:29;;;;;;;41.45;16.35;;;14.70;97.80;;;;;;5133751;28;20028;-76
2023/05/11 03:39:58;;;;;;;34.97;15.15;;;14.70;97.80;;;;;;5133709;28;20057;-75
2023/05/11 03:42:25;;;;;;;34.92;15.30;;;14.70;97.70;;;;;;5134575;28;20027;-75
2023/05/11 03:44:54;;;;;;;38.05;16.02;;;14.80;97.70;;;;;;5134484;28;20027;-76
2023/05/11 03:47:21;;;;;;;37.90;15.82;;;14.70;97.60;;;;;;5133542;28;20024;-76
2023/05/11 03:49:47;;;;;;;32.92;15.13;;;14.70;97.60;;;;;;5134444;28;20030;-76
2023/05/11 03:52:14;;;;;;;37.88;15.55;;;14.70;97.50;;;;;;5134402;28;20028;-76
2023/05/11 03:54:44;;;;;;;38.17;16.35;;;14.70;97.60;;;;;;5134387;27;20031;-76
2023/05/11 03:57:10;;;;;;;36.38;15.45;;;14.80;97.60;;;;;;5134538;28;20024;-76
2023/05/11 03:59:38;;;;;;;38.30;15.23;;;14.80;97.50;;;;;;5134280;28;20088;-76
2023/05/11 04:02:04;;;;;;;32.40;15.18;;;14.80;97.50;;;;;;5134165;28;20110;-76
2023/05/11 04:04:30;;;;;;;37.60;15.50;;;14.80;97.40;;;;;;5134155;28;20024;-75
2023/05/11 04:06:56;;;;;;;35.00;16.67;;;14.80;97.30;;;;;;5133960;28;20043;-75
2023/05/11 04:09:22;;;;;;;33.67;15.75;;;14.80;97.30;;;;;;5133211;28;20046;-75
2023/05/11 04:11:48;;;;;;;36.60;14.95;;;14.80;97.20;;;;;;5116277;28;20030;-76
2023/05/11 04:14:14;;;;;;;38.45;14.80;;;14.80;97.10;;;;;;5134080;28;20051;-75
2023/05/11 04:16:39;;;;;;;33.65;15.05;;;14.80;97.10;;;;;;5116069;28;20402;-76
2023/05/11 04:19:06;;;;;;;33.53;15.85;;;14.80;97.00;;;;;;5133988;28;20024;-76
2023/05/11 04:21:31;;;;;;;34.00;15.30;;;14.70;97.10;;;;;;5133144;28;20069;-76
2023/05/11 04:23:57;;;;;;;37.05;15.18;;;14.70;97.10;;;;;;5133884;28;20031;-76
2023/05/11 04:26:23;;;;;;;34.78;15.45;;;14.70;97.20;;;;;;5115782;28;20030;-76
2023/05/11 04:28:49;;;;;;;29.63;15.15;;;14.70;97.30;;;;;;5133624;28;20075;-75
2023/05/11 04:31:15;;;;;;;32.95;15.15;;;14.60;97.40;;;;;;5115863;28;20459;-76
2023/05/11 04:33:40;;;;;;;31.73;14.90;;;14.60;97.50;;;;;;5133695;28;20032;-76
2023/05/11 04:36:06;;;;;;;29.95;15.13;;;14.50;97.60;;;;;;5132900;28;20031;-76
2023/05/11 04:38:32;;;;;;;32.33;15.57;;;14.50;97.70;;;;;;5133882;28;20039;-76
2023/05/11 04:41:05;;;;;;;32.67;15.73;;;14.50;97.70;;;;;;5133839;28;20032;-76
2023/05/11 04:43:31;;;;;;;33.95;15.55;;;14.50;97.80;;;;;;5132712;28;20032;-76
2023/05/11 04:45:58;;;;;;;35.67;16.17;;;14.60;97.90;;;;;;5133732;28;20027;-76
2023/05/11 04:48:24;;;;;;;33.30;15.68;;;14.60;98.30;;;;;;5132674;28;20035;-76
2023/05/11 04:50:50;;;;;;;35.28;15.85;;;14.60;97.90;;;;;;5133719;28;20035;-76
2023/05/11 04:53:16;;;;;;;33.95;15.40;;;14.60;97.90;;;;;;5133729;28;20028;-76
2023/05/11 04:55:42;;;;;;;35.70;16.90;;;14.60;97.90;;;;;;5133694;28;20053;-76
2023/05/11 04:58:07;;;;;;;39.47;17.20;;;14.60;97.90;;;;;;5132566;28;20035;-76
2023/05/11 05:00:35;;;;;;;31.90;16.58;;;14.60;97.90;;;;;;5132659;28;20099;-75
2023/05/11 05:03:01;;;;;;;40.58;17.70;;;14.60;98.00;;;;;;5115824;28;20035;-75
2023/05/11 05:05:26;;;;;;;37.92;16.67;;;14.70;98.00;;;;;;5115651;28;20135;-76
2023/05/11 05:07:55;;;;;;;34.95;16.10;;;14.70;98.00;;;;;;5133371;28;20101;-76
2023/05/11 05:10:24;;;;;;;33.80;16.33;;;14.80;98.00;;;;;;5132445;28;20023;-76
2023/05/11 05:12:49;;;;;;;31.35;15.55;;;14.80;97.90;;;;;;5133520;28;20020;-76
2023/05/11 05:15:15;;;;;;;34.97;16.75;;;14.80;97.80;;;;;;5133483;28;20043;-75
2023/05/11 05:17:41;;;;;;;35.60;16.45;;;14.80;97.80;;;;;;5132545;28;20024;-76
2023/05/11 05:20:07;;;;;;;33.85;15.88;;;14.80;97.80;;;;;;5132508;28;20024;-75
2023/05/11 05:22:33;;;;;;;35.95;15.45;;;14.70;97.80;;;;;;5133575;28;20032;-76
2023/05/11 05:24:58;;;;;;;31.02;14.80;;;14.80;97.90;;;;;;5132278;28;20022;-75
2023/05/11 05:27:24;;;;;;;37.50;16.52;;;14.80;97.90;;;;;;5133366;28;20031;-75
2023/05/11 05:29:50;;;;;;;33.75;15.20;;;14.80;97.80;;;;;;5133394;28;20040;-75
2023/05/11 05:32:15;;;;;;;34.33;15.75;;;14.80;97.80;;;;;;5133337;28;20024;-75
2023/05/11 05:34:42;;;;;;;32.88;16.25;;;14.80;97.80;;;;;;5115255;28;20611;-75
2023/05/11 05:37:08;;;;;;;34.17;14.95;;;14.90;97.90;;;;;;5133294;28;20023;-75
2023/05/11 05:39:33;;;;;;;33.90;16.15;;;14.90;97.80;;;;;;5134524;28;20054;-75
2023/05/11 05:41:59;;;;;;;32.90;15.73;;;14.90;97.70;;;;;;5118894;28;20027;-75
2023/05/11 05:44:25;;;;;;;33.22;15.63;;;14.90;97.70;;;;;;5135756;28;20036;-76
2023/05/11 05:46:50;;;;;;;33.50;16.23;;;14.90;97.60;;;;;;5136687;28;20024;-75
2023/05/11 05:49:16;;;;;;;34.17;16.08;;;14.90;97.70;;;;;;5118825;28;20049;-76
2023/05/11 05:51:41;;;;;;;33.58;15.27;;;15.00;97.60;;;;;;5136761;28;20032;-75
2023/05/11 05:54:07;;;;;;;31.90;14.65;;;15.00;97.50;;;;;;5135667;28;20027;-75
2023/05/11 05:56:33;;;;;;;31.95;14.35;;;15.00;97.50;;;;;;5136787;28;20474;-75
2023/05/11 05:59:00;;;;;;;33.67;15.60;;;15.00;97.40;;;;;;5136566;28;20049;-75
2023/05/11 06:01:26;;;;;;;38.22;16.98;;;15.00;97.50;;;;;;5135487;28;20032;-75
2023/05/11 06:03:51;;;;;;;34.00;16.30;;;15.00;97.30;;;;;;5135513;28;20490;-75
2023/05/11 06:06:17;;;;;;;39.70;16.58;;;15.10;97.30;;;;;;5135297;28;20061;-76
2023/05/11 06:08:43;;;;;;;34.83;17.23;;;15.10;97.30;;;;;;5135354;28;20024;-75
2023/05/11 06:11:08;;;;;;;36.42;16.38;;;15.10;97.30;;;;;;5118427;28;20050;-75
2023/05/11 06:13:34;;;;;;;39.33;17.73;;;15.20;97.40;;;;;;5135404;28;20038;-75
2023/05/11 06:16:00;;;;;;;36.03;16.73;;;15.20;97.20;;;;;;5136261;28;20058;-76
2023/05/11 06:18:26;;;;;;;37.80;17.58;;;15.20;97.00;;;;;;5136244;28;20026;-75
2023/05/11 06:20:52;;;;;;;35.38;17.10;;;15.20;96.70;;;;;;5136139;28;20040;-75
2023/05/11 06:23:17;;;;;;;36.17;17.13;;;15.10;96.60;;;;;;5136051;28;20080;-75
2023/05/11 06:25:43;;;;;;;33.15;16.17;;;15.10;96.80;;;;;;5136075;28;20028;-75
2023/05/11 06:28:09;;;;;;;37.78;17.67;;;15.10;96.90;;;;;;5118110;28;20024;-75
2023/05/11 06:30:35;;;;;;;36.58;17.92;;;15.20;97.00;;;;;;5136041;28;20031;-75
2023/05/11 06:33:00;;;;;;;41.05;18.08;;;15.10;96.80;;;;;;5135928;28;20032;-75
2023/05/11 06:35:26;;;;;;;38.50;16.77;;;15.10;96.70;;;;;;5134763;28;20023;-75
2023/05/11 06:37:51;;;;;;;35.13;16.60;;;15.10;96.80;;;;;;5134916;28;20024;-75
2023/05/11 06:40:17;;;;;;;36.22;16.58;;;15.10;96.80;;;;;;5117726;28;20061;-75
2023/05/11 06:42:43;;;;;;;33.17;16.38;;;15.10;96.90;;;;;;5135781;28;20088;-75
2023/05/11 06:45:09;;;;;;;34.97;16.40;;;15.10;96.70;;;;;;5135615;28;20038;-75
2023/05/11 06:47:35;;;;;;;38.35;16.77;;;15.10;96.60;;;;;;5134566;28;20031;-75
2023/05/11 06:50:02;;;;;;;40.13;18.08;;;15.00;96.60;;;;;;5135195;28;20020;-75
2023/05/11 06:52:28;;;;;;;38.70;17.40;;;15.00;96.70;;;;;;5134623;28;20492;-75
2023/05/11 06:54:55;;;;;;;33.97;16.02;;;15.00;96.60;;;;;;5135496;28;20039;-75
2023/05/11 06:57:20;;;;;;;37.90;16.05;;;15.10;96.70;;;;;;5117523;28;20045;-75
2023/05/11 06:59:46;;;;;;;38.05;16.52;;;15.10;96.70;;;;;;5134411;28;20040;-75
2023/05/11 07:02:11;;;;;;;37.35;17.15;;;15.20;96.70;;;;;;5135341;28;20062;-75
2023/05/11 07:04:37;;;;;;;35.22;15.02;;;15.20;96.60;;;;;;5134303;28;20038;-75
2023/05/11 07:07:03;;;;;;;31.23;15.82;;;15.10;96.40;;;;;;5135038;28;20051;-75
2023/05/11 07:09:28;;;;;;;38.40;16.73;;;15.10;96.40;;;;;;5135201;28;20031;-75
2023/05/11 07:11:55;;;;;;;35.47;17.17;;;15.10;96.40;;;;;;5117172;28;20024;-75
2023/05/11 07:14:20;;;;;;;36.83;16.73;;;15.20;96.30;;;;;;5134065;28;20024;-75
2023/05/11 07:16:46;;;;;;;41.50;17.80;;;15.10;96.10;;;;;;5135080;28;20024;-75
2023/05/11 07:19:12;;;;;;;41.40;18.27;;;15.00;96.00;;;;;;5117058;28;20034;-75
2023/05/11 07:21:38;;;;;;;39.15;17.27;;;15.00;95.90;;;;;;5134962;28;20031;-75
2023/05/11 07:24:03;;;;;;;41.78;18.10;;;15.10;96.00;;;;;;5134875;28;20031;-74
2023/05/11 07:26:29;;;;;;;40.88;17.42;;;15.10;96.40;;;;;;5116830;28;20031;-74
2023/05/11 07:28:55;;;;;;;40.17;17.60;;;15.20;96.10;;;;;;5133844;28;20050;-74
2023/05/11 07:31:20;;;;;;;48.50;20.23;;;15.20;96.20;;;;;;5133896;28;20028;-74
2023/05/11 07:33:46;;;;;;;40.75;19.10;;;15.30;96.30;;;;;;5134700;28;20047;-75
2023/05/11 07:36:12;;;;;;;45.95;20.23;;;15.40;96.30;;;;;;5133824;28;20031;-74
2023/05/11 07:38:38;;;;;;;47.63;20.65;;;15.40;96.40;;;;;;5134644;28;20053;-74
2023/05/11 07:41:04;;;;;;;46.25;20.15;;;15.40;96.20;;;;;;5134675;28;20039;-74
2023/05/11 07:43:29;;;;;;;47.55;20.63;;;15.40;96.20;;;;;;5134572;28;20031;-74
2023/05/11 07:45:55;;;;;;;43.47;19.25;;;15.40;96.10;;;;;;5134535;28;20098;-74
2023/05/11 07:48:21;;;;;;;44.63;18.92;;;15.40;96.20;;;;;;5134493;28;20019;-75
2023/05/11 07:50:48;;;;;;;38.85;19.02;;;15.50;96.20;;;;;;5134509;28;20031;-74
2023/05/11 07:53:14;;;;;;;42.50;19.52;;;15.50;96.20;;;;;;5134565;28;20031;-74
2023/05/11 07:55:40;;;;;;;44.28;20.80;;;15.60;96.20;;;;;;5133444;28;20486;-74
2023/05/11 07:58:06;;;;;;;43.45;20.45;;;15.60;96.10;;;;;;5116455;28;20030;-75
2023/05/11 08:00:33;;;;;;;47.38;20.42;;;15.60;96.10;;;;;;5133325;28;20027;-75
2023/05/11 08:02:59;;;;;;;47.35;19.13;;;15.60;95.90;;;;;;5132592;28;20044;-74
2023/05/11 08:05:24;;;;;;;44.65;20.42;;;15.60;96.00;;;;;;5134219;28;20028;-75
2023/05/11 08:07:50;;;;;;;50.30;21.13;;;15.70;95.80;;;;;;5134003;28;20054;-76
2023/05/11 08:10:16;;;;;;;41.63;20.88;;;15.70;95.70;;;;;;5134170;28;20023;-74
2023/05/11 08:12:41;;;;;;;48.58;21.35;;;15.70;95.60;;;;;;5133099;28;20023;-74
2023/05/11 08:15:08;;;;;;;46.65;21.73;;;15.70;95.40;;;;;;5132950;28;20131;-75
2023/05/11 08:17:34;;;;;;;43.45;20.58;;;15.60;95.40;;;;;;5133105;28;20128;-75
2023/05/11 08:20:00;;;;;;;41.67;22.02;;;15.70;95.60;;;;;;5133104;28;20024;-75
2023/05/11 08:22:25;;;;;;;51.25;21.77;;;15.70;95.50;;;;;;5134015;28;20039;-75
2023/05/11 08:24:51;;;;;;;51.58;23.00;;;15.70;95.60;;;;;;5133931;28;20041;-75
2023/05/11 08:27:17;;;;;;;48.25;22.95;;;15.80;95.70;;;;;;5133066;28;20383;-75
2023/05/11 08:29:42;;;;;;;47.95;22.00;;;15.80;95.50;;;;;;5133936;28;20031;-75
2023/05/11 08:32:08;;;;;;;56.65;24.08;;;15.80;95.50;;;;;;5133004;28;20019;-75
2023/05/11 08:34:33;;;;;;;55.20;23.48;;;15.90;95.70;;;;;;5132983;28;20035;-75
2023/05/11 08:37:03;;;;;;;48.05;22.70;;;15.90;95.70;;;;;;5133073;28;20370;-75
2023/05/11 08:39:28;;;;;;;53.70;24.83;;;15.90;95.60;;;;;;5134002;28;20024;-75
2023/05/11 08:41:58;;;;;;;48.95;23.45;;;16.00;95.60;;;;;;5133884;28;20027;-75
2023/05/11 08:44:25;;;;;;;50.60;23.65;;;16.00;95.60;;;;;;5133818;28;20019;-75
2023/05/11 08:46:53;;;;;;;50.90;23.80;;;16.00;95.50;;;;;;5133818;28;20020;-75
2023/05/11 08:49:19;;;;;;;54.97;24.65;;;16.00;95.10;;;;;;5133754;28;20027;-75
2023/05/11 08:51:45;;;;;;;54.40;23.98;;;16.00;95.10;;;;;;5133748;28;20015;-75
2023/05/11 08:54:11;;;;;;;50.63;23.35;;;16.10;95.30;;;;;;5133828;28;20028;-75
2023/05/11 08:56:40;;;;;;;51.05;23.10;;;16.20;95.40;;;;;;5133854;28;20031;-75
2023/05/11 08:59:06;;;;;;;47.50;22.20;;;16.20;95.40;;;;;;5133632;28;20023;-75
2023/05/11 09:01:34;;;;;;;47.33;22.45;;;16.20;95.00;;;;;;5133641;28;20036;-75
2023/05/11 09:04:00;;;;;;;48.13;22.27;;;16.20;95.00;;;;;;5133541;28;20020;-75
2023/05/11 09:06:27;;;;;;;49.15;23.27;;;16.30;95.10;;;;;;5133407;28;20103;-75
2023/05/11 09:08:53;;;;;;;46.80;21.80;;;16.30;95.00;;;;;;5115744;28;20032;-75
2023/05/11 09:11:20;;;;;;;41.90;20.20;;;16.40;95.00;;;;;;5133554;28;20020;-77
2023/05/11 09:13:46;;;;;;;45.60;20.75;;;16.40;94.10;;;;;;5135276;28;20024;-77
2023/05/11 09:16:12;;;;;;;49.88;21.17;;;16.50;94.30;;;;;;5137448;28;20075;-76
2023/05/11 09:18:58;;;;;;;45.30;20.77;;;16.50;94.40;;;;;;5136450;28;20026;-76
2023/05/11 09:21:24;;;;;;;51.28;20.17;;;16.50;94.30;;;;;;5137251;28;20023;-76
2023/05/11 09:23:51;;;;;;;49.05;22.30;;;16.50;94.00;;;;;;5137261;28;20035;-76
2023/05/11 09:26:19;;;;;;;42.17;20.20;;;16.50;94.00;;;;;;5137316;28;20022;-76
2023/05/11 09:28:54;;;;;;;42.20;20.80;;;16.50;94.20;;;;;;5136166;28;20019;-76
2023/05/11 09:31:45;;;;;;;45.63;21.00;;;16.60;94.20;;;;;;5137146;28;20016;-76
2023/05/11 09:34:15;;;;;;;43.65;20.63;;;16.60;93.90;;;;;;5137082;28;20020;-76
2023/05/11 09:36:45;;;;;;;46.33;19.40;;;16.60;93.70;;;;;;5137379;28;20042;-77
2023/05/11 09:39:12;;;;;;;46.55;21.42;;;16.60;93.60;;;;;;5137103;28;20020;-76
2023/05/11 09:41:37;;;;;;;42.55;20.50;;;16.50;93.70;;;;;;5137018;28;20030;-76
2023/05/11 09:44:04;;;;;;;40.33;18.33;;;16.60;93.60;;;;;;5136838;28;20035;-77
2023/05/11 09:46:29;;;;;;;40.38;18.02;;;16.60;93.60;;;;;;5136774;28;20059;-77
2023/05/11 09:48:59;;;;;;;46.92;20.80;;;16.60;93.40;;;;;;5135754;28;20031;-76
2023/05/11 09:51:33;;;;;;;48.53;21.38;;;16.60;93.20;;;;;;5136876;28;20016;-76
2023/05/11 09:54:00;;;;;;;46.40;20.38;;;16.50;93.20;;;;;;5136689;28;20031;-77
2023/05/11 09:56:48;;;;;;;49.63;20.00;;;16.50;93.40;;;;;;5136750;28;20038;-76
2023/05/11 09:59:15;;;;;;;40.85;19.35;;;16.50;93.20;;;;;;5135558;28;20038;-76
2023/05/11 10:01:41;;;;;;;42.33;20.00;;;16.40;93.20;;;;;;5136604;28;20050;-77
2023/05/11 10:04:10;;;;;;;43.97;20.42;;;16.40;92.90;;;;;;5136401;28;20028;-76
2023/05/11 10:06:52;;;;;;;48.28;21.13;;;16.40;92.80;;;;;;5136399;28;20039;-77
2023/05/11 10:09:22;;;;;;;46.65;19.85;;;16.30;93.00;;;;;;5136714;28;20030;-77
2023/05/11 10:11:49;;;;;;;45.90;20.17;;;16.40;93.20;;;;;;5136480;28;20043;-76
2023/05/11 10:14:15;;;;;;;49.47;22.00;;;16.30;93.30;;;;;;5136291;28;20023;-77
2023/05/11 10:16:42;;;;;;;48.67;20.40;;;16.30;93.10;;;;;;5136316;28;20026;-76
2023/05/11 10:19:08;;;;;;;48.13;20.27;;;16.30;93.30;;;;;;5136194;28;20028;-76
2023/05/11 10:21:34;;;;;;;47.40;20.15;;;16.20;93.30;;;;;;5136172;28;20031;-76
2023/05/11 10:24:02;;;;;;;41.67;19.15;;;16.20;92.90;;;;;;5136028;28;20073;-77
2023/05/11 10:26:31;;;;;;;40.97;18.25;;;16.10;93.10;;;;;;5134357;28;20054;-76
2023/05/11 10:29:00;;;;;;;46.85;19.48;;;16.10;93.40;;;;;;5136048;28;20022;-76
2023/05/11 10:31:26;;;;;;;48.10;19.05;;;16.10;93.30;;;;;;5136117;28;20024;-77
2023/05/11 10:33:52;;;;;;;41.15;18.77;;;16.10;93.50;;;;;;5117981;28;20019;-76
2023/05/11 10:36:18;;;;;;;46.67;18.70;;;16.00;93.60;;;;;;5135909;28;20035;-76
2023/05/11 10:38:43;;;;;;;48.33;19.85;;;16.00;93.70;;;;;;5134821;28;20047;-77
2023/05/11 10:41:23;;;;;;;49.58;19.83;;;16.00;93.80;;;;;;5117877;28;20032;-76
2023/05/11 10:44:25;;;;;;;47.00;19.20;;;16.10;93.90;;;;;;5135751;28;20053;-77
2023/05/11 10:47:24;;;;;;;46.38;20.42;;;16.00;94.00;;;;;;5135915;28;20019;-76
2023/05/11 10:49:56;;;;;;;42.15;18.92;;;16.00;93.90;;;;;;5131218;28;20031;-77
2023/05/11 10:52:41;;;;;;;46.35;20.02;;;15.90;94.20;;;;;;5135583;28;20034;-76
2023/05/11 10:55:27;;;;;;;44.60;19.17;;;16.00;94.40;;;;;;5135728;28;20024;-76
2023/05/11 10:58:11;;;;;;;40.15;19.42;;;16.00;94.60;;;;;;5134520;28;20032;-77
2023/05/11 11:00:58;;;;;;;42.53;18.48;;;16.00;94.70;;;;;;5135503;28;20057;-77
2023/05/11 11:03:24;;;;;;;44.80;19.73;;;16.00;94.80;;;;;;5135367;28;20136;-76
2023/05/11 11:05:50;;;;;;;41.47;19.27;;;16.00;95.00;;;;;;5135363;28;20027;-77
2023/05/11 11:08:15;;;;;;;44.10;18.00;;;16.00;95.10;;;;;;5134264;28;20069;-77
2023/05/11 11:10:44;;;;;;;44.50;20.15;;;16.00;95.10;;;;;;5135219;28;20030;-76
2023/05/11 11:13:14;;;;;;;39.05;18.92;;;16.00;95.10;;;;;;5135221;28;20034;-77
2023/05/11 11:15:54;;;;;;;42.97;19.85;;;16.00;95.20;;;;;;5134266;28;20024;-77
2023/05/11 11:18:32;;;;;;;46.45;19.38;;;16.00;95.20;;;;;;5135109;28;20039;-77
2023/05/11 11:20:58;;;;;;;45.45;19.60;;;16.00;95.30;;;;;;5135174;28;20023;-77
2023/05/11 11:23:46;;;;;;;43.97;19.90;;;16.00;95.40;;;;;;5134055;28;20039;-77
2023/05/11 11:26:14;;;;;;;41.22;18.60;;;16.00;95.50;;;;;;5135114;28;20055;-77
2023/05/11 11:29:00;;;;;;;51.85;20.35;;;16.00;95.40;;;;;;5134984;28;20016;-77
2023/05/11 11:31:27;;;;;;;43.70;19.73;;;16.00;95.40;;;;;;5133867;28;20028;-76
2023/05/11 11:33:59;;;;;;;46.13;21.23;;;16.00;95.50;;;;;;5134801;28;20051;-77
2023/05/11 11:36:53;;;;;;;44.20;19.50;;;16.00;95.70;;;;;;5134814;28;20116;-77
2023/05/11 11:39:24;;;;;;;52.78;20.88;;;16.00;95.70;;;;;;5133785;28;20027;-77
2023/05/11 11:42:08;;;;;;;46.60;19.85;;;16.00;95.90;;;;;;5134815;28;20043;-77
2023/05/11 11:44:34;;;;;;;49.03;22.08;;;16.10;95.90;;;;;;5134587;28;20547;-77
2023/05/11 11:47:10;;;;;;;52.25;21.67;;;16.00;95.80;;;;;;5134825;28;20053;-77
2023/05/11 11:49:36;;;;;;;56.08;22.50;;;16.10;95.90;;;;;;5134579;28;20016;-77
2023/05/11 11:52:03;;;;;;;51.38;22.10;;;16.00;96.00;;;;;;5133610;28;20019;-77
2023/05/11 11:54:58;;;;;;;53.17;22.30;;;16.10;96.00;;;;;;5116483;28;20057;-77
2023/05/11 11:57:33;;;;;;;50.90;21.55;;;16.10;96.00;;;;;;5112567;28;20039;-77
2023/05/11 12:00:09;;;;;;;52.13;21.83;;;16.10;96.10;;;;;;5133334;28;20124;-77
2023/05/11 12:02:42;;;;;;;55.15;21.23;;;16.20;96.20;;;;;;5118018;28;20024;-77
2023/05/11 12:05:21;;;;;;;48.28;20.30;;;16.20;96.10;;;;;;5133552;28;20031;-76
2023/05/11 12:07:51;;;;;;;59.00;21.77;;;16.20;96.20;;;;;;5117125;28;20055;-76
2023/05/11 12:10:18;;;;;;;48.63;21.55;;;16.20;96.20;;;;;;5133158;28;20095;-76
2023/05/11 12:12:48;;;;;;;56.17;22.30;;;16.20;96.30;;;;;;5134196;28;20026;-76
2023/05/11 12:15:40;;;;;;;53.53;22.83;;;16.20;96.30;;;;;;5133398;28;20020;-76
2023/05/11 12:18:19;;;;;;;61.50;22.98;;;16.20;96.30;;;;;;5111570;28;20036;-76
2023/05/11 12:20:45;;;;;;;54.60;22.25;;;16.20;96.30;;;;;;5134182;28;20087;-76
2023/05/11 12:23:12;;;;;;;53.95;22.52;;;16.20;96.50;;;;;;5133136;28;20032;-76
2023/05/11 12:25:38;;;;;;;58.03;22.15;;;16.20;96.40;;;;;;5133274;28;20050;-77
2023/05/11 12:28:04;;;;;;;57.70;22.73;;;16.20;96.40;;;;;;5116069;28;20035;-76
2023/05/11 12:30:33;;;;;;;57.88;22.90;;;16.20;96.70;;;;;;5133038;28;20087;-76
2023/05/11 12:33:02;;;;;;;63.67;22.88;;;16.20;96.70;;;;;;5115903;28;20024;-76
2023/05/11 12:35:32;;;;;;;55.35;22.17;;;16.20;96.70;;;;;;5132981;28;20087;-77